Time;durP1;ratioP1;P1;durP2;ratioP2;P2;SDS_P1;SDS_P2;PMS_P1;PMS_P2;Temp;Humidity;BMP_temperature;BMP_pressure;BME280_temperature;BME280_humidity;BME280_pressure;Samples;Min_cycle;Max_cycle;Signal;HPM_P1;HPM_P2
2024/02/28 00:01:23;;;;;;;15.40;5.10;;;;;;;4.43;56.07;101530.17;104497;1264;59362;-64
2024/02/28 00:03:51;;;;;;;15.90;5.80;;;;;;;4.41;56.15;101531.46;105019;1262;63536;-65
2024/02/28 00:06:19;;;;;;;9.60;4.60;;;;;;;4.45;56.11;101530.31;104901;1259;60421;-62
2024/02/28 00:08:47;;;;;;;10.60;3.90;;;;;;;4.50;55.92;101531.34;104736;1257;63597;-62
2024/02/28 00:11:15;;;;;;;14.70;4.30;;;;;;;4.57;56.02;101527.27;105010;1260;177445;-67
2024/02/28 00:13:43;;;;;;;12.40;4.00;;;;;;;4.62;56.11;101530.01;105994;1254;59333;-67
2024/02/28 00:16:11;;;;;;;21.90;11.60;;;;;;;4.69;56.06;101526.83;105289;1254;62082;-68
2024/02/28 00:18:39;;;;;;;10.30;4.20;;;;;;;4.75;56.12;101525.38;105366;1258;62370;-66
2024/02/28 00:21:07;;;;;;;13.40;5.60;;;;;;;4.80;56.26;101525.90;105078;1257;62614;-67
2024/02/28 00:23:34;;;;;;;13.50;6.60;;;;;;;4.81;56.27;101523.58;105088;1254;59649;-67
2024/02/28 00:26:02;;;;;;;12.20;4.20;;;;;;;4.81;56.28;101524.28;105152;1257;59725;-67
2024/02/28 00:28:30;;;;;;;19.90;5.60;;;;;;;4.78;56.20;101527.69;105474;1260;64198;-67
2024/02/28 00:30:58;;;;;;;18.00;5.80;;;;;;;4.74;56.04;101528.55;105168;1259;60261;-69
2024/02/28 00:33:25;;;;;;;16.60;6.80;;;;;;;4.70;56.17;101525.74;105362;1254;62599;-59
2024/02/28 00:35:53;;;;;;;15.80;6.50;;;;;;;4.70;56.28;101521.92;105176;1254;59767;-65
2024/02/28 00:38:22;;;;;;;19.30;6.80;;;;;;;4.67;56.24;101522.55;105234;1254;59637;-66
2024/02/28 00:40:49;;;;;;;21.70;7.10;;;;;;;4.63;56.10;101521.64;106636;1254;64188;-67
2024/02/28 00:43:17;;;;;;;16.20;5.30;;;;;;;4.62;56.13;101525.17;105331;1254;61965;-67
2024/02/28 00:45:45;;;;;;;10.40;4.50;;;;;;;4.58;56.28;101522.69;104987;1255;62531;-65
2024/02/28 00:48:13;;;;;;;20.60;7.40;;;;;;;4.54;56.29;101519.91;106063;1257;59758;-64
2024/02/28 00:50:41;;;;;;;13.00;6.80;;;;;;;4.51;56.40;101519.50;105191;1257;59563;-65
2024/02/28 00:53:09;;;;;;;14.90;7.70;;;;;;;4.48;56.51;101517.65;105161;1260;63761;-66
2024/02/28 00:55:37;;;;;;;12.30;6.90;;;;;;;4.45;56.63;101516.57;105215;1259;60233;-59
2024/02/28 00:58:04;;;;;;;18.60;7.80;;;;;;;4.43;56.76;101520.83;105217;1257;64296;-59
2024/02/28 01:00:32;;;;;;;13.10;5.50;;;;;;;4.41;56.88;101518.44;105101;1260;59915;-60
2024/02/28 01:03:03;;;;;;;12.70;4.00;;;;;;;4.42;56.79;101513.02;105179;1254;61386;-59
2024/02/28 01:05:31;;;;;;;10.60;4.10;;;;;;;4.50;56.92;101515.52;105199;1259;64232;-59
2024/02/28 01:07:59;;;;;;;15.90;5.40;;;;;;;4.58;56.99;101511.05;105593;1255;61502;-59
2024/02/28 01:10:26;;;;;;;13.90;6.10;;;;;;;4.67;56.97;101504.98;104994;1257;63814;-59
2024/02/28 01:12:54;;;;;;;13.30;5.80;;;;;;;4.75;57.07;101504.02;105268;1260;59713;-59
2024/02/28 01:15:22;;;;;;;14.10;7.00;;;;;;;4.84;57.08;101505.77;105118;1254;59805;-59
2024/02/28 01:17:51;;;;;;;12.50;5.80;;;;;;;4.89;57.10;101502.77;105665;1255;64220;-66
2024/02/28 01:20:19;;;;;;;13.40;5.00;;;;;;;4.95;57.17;101507.94;105705;1254;61580;-69
2024/02/28 01:22:47;;;;;;;14.30;6.70;;;;;;;4.97;57.12;101507.15;106638;1258;62609;-67
2024/02/28 01:25:15;;;;;;;13.70;6.00;;;;;;;4.94;56.91;101504.14;105019;1260;59811;-66
2024/02/28 01:27:43;;;;;;;15.30;5.90;;;;;;;4.92;56.76;101505.80;105130;1253;59726;-65
2024/02/28 01:30:11;;;;;;;11.40;5.60;;;;;;;4.91;56.75;101506.35;105115;1254;62920;-66
2024/02/28 01:32:39;;;;;;;17.00;6.90;;;;;;;4.89;56.73;101505.20;105215;1254;61980;-69
2024/02/28 01:35:09;;;;;;;25.20;8.50;;;;;;;4.89;56.78;101503.45;105226;1254;63978;-66
2024/02/28 01:37:36;;;;;;;18.50;7.80;;;;;;;4.87;56.80;101499.73;105255;1253;59647;-65
2024/02/28 01:40:05;;;;;;;14.30;5.70;;;;;;;4.86;56.76;101496.96;105157;1259;59606;-64
2024/02/28 01:42:32;;;;;;;16.30;7.50;;;;;;;4.87;56.81;101497.11;105560;1254;75718;-64
2024/02/28 01:45:00;;;;;;;34.50;7.90;;;;;;;4.86;56.79;101496.45;105202;1260;62052;-63
2024/02/28 01:47:28;;;;;;;15.20;7.30;;;;;;;4.88;56.88;101496.55;105217;1260;62518;-65
2024/02/28 01:49:56;;;;;;;16.30;7.70;;;;;;;4.88;56.92;101494.83;106477;1258;59704;-64
2024/02/28 01:52:23;;;;;;;17.40;7.50;;;;;;;4.87;56.85;101492.25;105675;1258;59803;-61
2024/02/28 01:54:52;;;;;;;16.10;6.40;;;;;;;4.86;56.79;101493.13;105166;1254;62913;-62
2024/02/28 01:57:20;;;;;;;16.30;5.00;;;;;;;4.93;56.66;101493.73;105718;1254;62045;-62
2024/02/28 01:59:47;;;;;;;11.80;4.70;;;;;;;5.02;56.58;101493.77;105053;1254;62505;-62
2024/02/28 02:02:15;;;;;;;12.50;6.50;;;;;;;5.11;56.44;101494.29;105196;1260;59905;-63
2024/02/28 02:04:43;;;;;;;15.80;6.80;;;;;;;5.20;56.29;101493.56;105157;1254;60017;-65
2024/02/28 02:07:11;;;;;;;12.60;4.50;;;;;;;5.30;56.19;101489.52;105381;1254;62896;-60
2024/02/28 02:09:38;;;;;;;14.10;6.10;;;;;;;5.40;55.94;101489.48;105117;1259;60307;-59
2024/02/28 02:12:07;;;;;;;16.20;7.30;;;;;;;5.46;55.81;101489.05;105217;1258;63815;-61
2024/02/28 02:14:34;;;;;;;14.60;7.10;;;;;;;5.49;55.72;101486.84;105386;1260;59668;-61
2024/02/28 02:17:02;;;;;;;24.50;6.00;;;;;;;5.51;55.56;101482.06;105099;1254;59556;-62
2024/02/28 02:19:29;;;;;;;17.20;9.20;;;;;;;5.49;55.45;101479.20;105155;1254;63046;-64
2024/02/28 02:21:58;;;;;;;11.60;6.40;;;;;;;5.45;55.40;101482.83;105260;1260;60231;-63
2024/02/28 02:24:26;;;;;;;17.00;7.00;;;;;;;5.41;55.19;101481.42;105829;1255;63770;-65
2024/02/28 02:26:58;;;;;;;13.20;7.00;;;;;;;5.35;55.16;101481.29;105276;1255;59628;-62
2024/02/28 02:29:28;;;;;;;16.50;6.60;;;;;;;5.29;55.23;101485.91;105856;1255;59875;-62
2024/02/28 02:31:56;;;;;;;17.50;8.40;;;;;;;5.22;55.33;101488.96;105205;1257;64219;-61
2024/02/28 02:34:23;;;;;;;18.50;7.90;;;;;;;5.18;55.46;101491.73;105176;1260;61569;-62
2024/02/28 02:36:51;;;;;;;19.40;8.10;;;;;;;5.15;55.54;101493.40;105214;1255;62524;-64
2024/02/28 02:39:19;;;;;;;23.30;8.20;;;;;;;5.12;55.61;101495.79;105157;1260;59617;-64
2024/02/28 02:41:47;;;;;;;15.00;7.10;;;;;;;5.09;55.64;101496.60;105209;1260;59550;-67
2024/02/28 02:44:15;;;;;;;16.30;6.40;;;;;;;5.07;55.63;101497.21;105319;1255;62883;-64
2024/02/28 02:46:43;;;;;;;16.00;7.20;;;;;;;5.05;55.75;101500.09;105068;1260;60312;-62
2024/02/28 02:49:11;;;;;;;14.80;8.00;;;;;;;5.02;55.73;101500.55;105117;1258;62538;-62
2024/02/28 02:51:38;;;;;;;14.30;6.80;;;;;;;4.99;55.81;101502.73;105153;1260;59657;-62
2024/02/28 02:54:06;;;;;;;15.20;5.80;;;;;;;4.99;55.79;101499.42;105137;1260;59749;-62
2024/02/28 02:56:34;;;;;;;13.70;5.60;;;;;;;5.00;55.69;101503.19;105128;1254;62890;-62
2024/02/28 02:59:02;;;;;;;13.10;5.20;;;;;;;5.07;55.64;101501.36;105216;1254;61538;-61
2024/02/28 03:01:29;;;;;;;16.90;5.00;;;;;;;5.16;55.66;101499.27;105139;1258;64285;-61
2024/02/28 03:03:57;;;;;;;11.10;4.80;;;;;;;5.24;55.69;101497.95;105236;1260;59788;-62
2024/02/28 03:06:25;;;;;;;15.30;6.10;;;;;;;5.32;55.70;101500.23;105835;1260;59750;-61
2024/02/28 03:08:53;;;;;;;13.30;5.80;;;;;;;5.42;55.74;101498.98;105205;1260;64198;-65
2024/02/28 03:11:20;;;;;;;19.30;5.90;;;;;;;5.45;55.63;101499.36;105967;1260;60257;-62
2024/02/28 03:13:48;;;;;;;21.20;6.00;;;;;;;5.46;55.54;101499.31;105286;1254;63830;-61
2024/02/28 03:16:17;;;;;;;14.70;6.20;;;;;;;5.46;55.54;101503.33;105788;1254;59739;-60
2024/02/28 03:18:44;;;;;;;16.90;7.60;;;;;;;5.44;55.56;101501.64;105148;1254;59769;-62
2024/02/28 03:21:12;;;;;;;17.30;6.80;;;;;;;5.44;55.47;101502.89;105146;1255;66208;-65
2024/02/28 03:23:40;;;;;;;14.40;7.30;;;;;;;5.41;55.51;101504.55;105192;1260;61344;-63
2024/02/28 03:26:08;;;;;;;21.00;7.60;;;;;;;5.39;55.54;101505.49;105206;1255;64401;-61
2024/02/28 03:28:36;;;;;;;13.50;6.50;;;;;;;5.39;55.40;101506.39;105471;1254;59687;-62
2024/02/28 03:31:04;;;;;;;15.90;7.00;;;;;;;5.34;55.50;101503.80;105346;1255;59805;-60
2024/02/28 03:33:32;;;;;;;13.80;6.40;;;;;;;5.29;55.43;101502.23;105481;1254;62912;-60
2024/02/28 03:36:01;;;;;;;15.20;7.50;;;;;;;5.24;55.43;101499.66;105234;1255;61534;-61
2024/02/28 03:38:28;;;;;;;13.20;6.30;;;;;;;5.19;55.60;101501.77;105106;1260;62611;-62
2024/02/28 03:40:56;;;;;;;15.50;7.00;;;;;;;5.16;55.79;101501.06;105169;1257;59655;-63
2024/02/28 03:43:24;;;;;;;16.60;8.00;;;;;;;5.11;55.84;101503.51;105175;1256;59749;-62
2024/02/28 03:45:51;;;;;;;15.20;6.60;;;;;;;5.08;56.05;101506.77;105751;1260;64673;-65
2024/02/28 03:48:19;;;;;;;19.00;7.50;;;;;;;5.04;56.03;101506.20;106658;1254;60324;-66
2024/02/28 03:50:47;;;;;;;15.40;7.60;;;;;;;5.03;56.01;101511.27;105219;1260;62533;-66
2024/02/28 03:53:15;;;;;;;15.30;5.20;;;;;;;5.08;56.14;101509.00;105145;1260;59329;-62
2024/02/28 03:55:44;;;;;;;14.60;4.70;;;;;;;5.19;56.09;101510.48;105196;1254;59723;-61
2024/02/28 03:58:12;;;;;;;13.90;5.70;;;;;;;5.28;55.85;101508.90;106030;1259;64283;-61
2024/02/28 04:00:39;;;;;;;12.20;4.80;;;;;;;5.37;55.75;101507.33;105336;1255;60258;-62
2024/02/28 04:03:07;;;;;;;13.20;5.60;;;;;;;5.48;55.65;101508.63;105156;1254;62546;-60
2024/02/28 04:05:35;;;;;;;15.90;7.20;;;;;;;5.56;55.44;101506.92;105195;1254;60477;-64
2024/02/28 04:08:03;;;;;;;16.10;5.50;;;;;;;5.59;55.40;101509.74;105212;1255;60639;-67
2024/02/28 04:10:31;;;;;;;14.00;5.50;;;;;;;5.62;55.45;101511.04;105631;1254;65083;-60
2024/02/28 04:12:59;;;;;;;13.90;5.80;;;;;;;5.66;55.31;101511.20;105568;1260;60513;-57
2024/02/28 04:15:28;;;;;;;12.80;5.60;;;;;;;5.66;55.11;101510.84;105558;1257;63803;-61
2024/02/28 04:17:55;;;;;;;13.30;6.40;;;;;;;5.64;54.91;101511.13;105141;1258;60318;-63
2024/02/28 04:20:23;;;;;;;12.80;7.30;;;;;;;5.60;54.87;101514.58;105143;1254;60463;-62
2024/02/28 04:22:51;;;;;;;13.00;5.00;;;;;;;5.59;54.85;101516.20;105229;1254;63768;-61
2024/02/28 04:25:19;;;;;;;14.80;5.90;;;;;;;5.58;54.77;101514.46;105920;1259;60459;-62
2024/02/28 04:27:47;;;;;;;18.10;7.90;;;;;;;5.57;54.67;101512.77;105901;1260;62520;-61
2024/02/28 04:30:14;;;;;;;16.30;6.60;;;;;;;5.54;54.72;101516.20;105171;1255;60627;-65
2024/02/28 04:32:42;;;;;;;13.90;6.90;;;;;;;5.50;54.65;101515.50;105049;1257;60478;-64
2024/02/28 04:35:10;;;;;;;19.00;7.30;;;;;;;5.49;54.72;101518.16;105188;1255;63687;-62
2024/02/28 04:37:38;;;;;;;18.70;6.90;;;;;;;5.49;54.67;101515.04;105064;1260;60406;-61
2024/02/28 04:40:06;;;;;;;12.80;6.50;;;;;;;5.49;54.64;101517.49;105150;1256;64367;-63
2024/02/28 04:42:34;;;;;;;16.40;6.70;;;;;;;5.47;54.65;101517.73;105315;1255;60348;-65
2024/02/28 04:45:02;;;;;;;17.80;6.60;;;;;;;5.47;54.65;101517.05;105125;1255;60619;-61
2024/02/28 04:47:30;;;;;;;15.00;6.20;;;;;;;5.47;54.61;101516.87;105427;1260;64980;-58
2024/02/28 04:50:10;;;;;;;11.70;4.90;;;;;;;5.45;54.55;101524.79;105219;1259;62000;-58
2024/02/28 04:52:37;;;;;;;12.10;4.90;;;;;;;5.42;54.64;101524.38;106244;1254;64201;-57
2024/02/28 04:55:05;;;;;;;12.70;6.60;;;;;;;5.40;54.57;101525.30;105213;1255;60645;-54
2024/02/28 04:57:33;;;;;;;11.30;4.50;;;;;;;5.45;54.44;101525.98;105088;1261;60528;-50
2024/02/28 05:00:01;;;;;;;15.50;4.20;;;;;;;5.50;54.42;101524.02;105096;1260;63708;-49
2024/02/28 05:02:28;;;;;;;12.00;4.80;;;;;;;5.60;54.49;101525.90;105071;1260;61541;-50
2024/02/28 05:04:58;;;;;;;15.80;4.60;;;;;;;5.69;54.41;101526.57;105013;1259;63821;-57
2024/02/28 05:07:25;;;;;;;13.40;4.20;;;;;;;5.77;54.43;101525.02;105579;1260;60385;-55
2024/02/28 05:09:53;;;;;;;16.50;5.90;;;;;;;5.85;54.45;101526.79;105026;1257;60500;-57
2024/02/28 05:12:21;;;;;;;14.00;6.20;;;;;;;5.92;54.40;101530.48;108876;1256;65053;-56
2024/02/28 05:14:48;;;;;;;14.60;7.40;;;;;;;5.96;54.34;101532.09;105023;1255;61972;-58
2024/02/28 05:17:20;;;;;;;13.50;5.90;;;;;;;5.97;54.25;101530.30;104922;1260;62657;-55
2024/02/28 05:19:47;;;;;;;16.40;6.20;;;;;;;5.98;54.28;101537.42;105081;1254;61701;-58
2024/02/28 05:22:15;;;;;;;13.40;6.10;;;;;;;5.97;54.13;101538.67;104992;1255;60562;-57
2024/02/28 05:24:46;;;;;;;16.00;6.40;;;;;;;5.96;54.05;101538.02;105132;1254;63730;-57
2024/02/28 05:27:13;;;;;;;14.90;6.50;;;;;;;5.92;54.12;101539.71;106685;1254;60787;-57
2024/02/28 05:29:42;;;;;;;15.40;6.00;;;;;;;5.88;54.06;101542.48;105018;1260;63810;-53
2024/02/28 05:32:10;;;;;;;14.90;6.90;;;;;;;5.85;54.03;101541.59;105045;1255;60499;-50
2024/02/28 05:34:38;;;;;;;14.70;6.50;;;;;;;5.81;54.09;101544.01;106115;1255;60576;-56
2024/02/28 05:37:06;;;;;;;15.30;6.00;;;;;;;5.78;54.07;101546.05;105381;1253;63941;-53
2024/02/28 05:39:34;;;;;;;21.60;7.40;;;;;;;5.75;54.12;101545.46;105266;1253;61566;-55
2024/02/28 05:42:02;;;;;;;14.00;6.90;;;;;;;5.72;54.24;101548.39;105387;1255;65880;-56
2024/02/28 05:44:29;;;;;;;14.70;6.60;;;;;;;5.71;54.33;101544.41;105201;1255;60581;-55
2024/02/28 05:46:57;;;;;;;17.20;7.70;;;;;;;5.71;54.28;101541.80;105020;1253;60551;-59
2024/02/28 05:49:25;;;;;;;13.20;6.30;;;;;;;5.70;54.39;101543.05;105039;1258;63712;-56
2024/02/28 05:51:53;;;;;;;17.00;6.50;;;;;;;5.71;54.35;101542.34;105095;1259;60680;-54
2024/02/28 05:54:21;;;;;;;12.60;5.30;;;;;;;5.71;54.43;101544.77;105630;1259;62530;-53
2024/02/28 05:56:49;;;;;;;14.30;6.40;;;;;;;5.71;54.45;101545.30;104798;1260;60527;-52
2024/02/28 05:59:17;;;;;;;11.80;6.40;;;;;;;5.70;54.38;101542.18;104956;1254;60509;-59
2024/02/28 06:01:45;;;;;;;14.60;5.00;;;;;;;5.74;54.29;101544.98;105023;1254;65491;-56
2024/02/28 06:04:13;;;;;;;10.80;4.00;;;;;;;5.83;54.24;101547.09;106826;1255;60454;-61
2024/02/28 06:06:40;;;;;;;12.00;5.40;;;;;;;5.93;54.13;101550.69;105072;1257;62553;-59
2024/02/28 06:09:11;;;;;;;10.40;3.80;;;;;;;6.06;54.04;101550.84;105343;1260;60559;-55
2024/02/28 06:11:39;;;;;;;13.00;5.40;;;;;;;6.20;53.90;101550.08;105328;1254;60587;-58
2024/02/28 06:14:07;;;;;;;18.90;5.90;;;;;;;6.29;53.78;101551.61;105111;1254;63686;-64
2024/02/28 06:16:34;;;;;;;14.60;5.60;;;;;;;6.37;53.60;101553.33;105405;1260;60558;-61
2024/02/28 06:19:02;;;;;;;12.50;6.20;;;;;;;6.45;53.50;101556.83;105066;1257;62558;-61
2024/02/28 06:21:32;;;;;;;27.40;5.60;;;;;;;6.52;53.12;101555.48;106168;1259;60729;-60
2024/02/28 06:24:00;;;;;;;9.60;5.20;;;;;;;6.59;52.89;101552.75;104934;1255;60529;-55
2024/02/28 06:26:28;;;;;;;11.90;4.40;;;;;;;6.66;52.44;101557.13;104846;1255;63727;-64
2024/02/28 06:29:01;;;;;;;14.00;5.10;;;;;;;6.70;51.77;101561.14;104966;1257;60609;-61
2024/02/28 06:31:31;;;;;;;11.30;4.30;;;;;;;6.73;51.31;101564.48;106417;1259;62543;-69
2024/02/28 06:33:59;;;;;;;14.00;5.70;;;;;;;6.76;50.73;101565.05;106537;1259;60440;-66
2024/02/28 06:36:26;;;;;;;21.30;10.80;;;;;;;6.77;50.37;101564.12;106051;1254;60535;-63
2024/02/28 06:38:54;;;;;;;11.40;4.40;;;;;;;6.79;50.06;101567.02;105716;1255;64060;-64
2024/02/28 06:41:22;;;;;;;12.20;4.40;;;;;;;6.81;49.93;101568.33;106267;1260;62498;-64
2024/02/28 06:43:49;;;;;;;12.90;4.10;;;;;;;6.85;49.78;101569.52;105772;1255;63826;-71
2024/02/28 06:46:17;;;;;;;14.90;4.70;;;;;;;6.87;49.38;101566.79;105089;1260;60539;-68
2024/02/28 06:48:45;;;;;;;11.90;4.90;;;;;;;6.89;49.00;101567.58;105076;1255;60536;-67
2024/02/28 06:51:13;;;;;;;10.80;4.60;;;;;;;6.91;48.67;101565.45;105473;1254;65225;-69
2024/02/28 06:53:44;;;;;;;12.40;4.30;;;;;;;6.93;48.32;101570.57;106193;1254;60437;-67
2024/02/28 06:56:11;;;;;;;13.80;5.10;;;;;;;6.96;48.39;101571.48;105637;1254;63813;-66
2024/02/28 06:58:39;;;;;;;16.90;4.60;;;;;;;7.00;48.10;101569.88;106267;1258;60426;-68
2024/02/28 07:01:07;;;;;;;11.10;4.00;;;;;;;7.03;47.73;101567.12;105191;1255;60510;-67
2024/02/28 07:03:35;;;;;;;9.20;3.30;;;;;;;7.04;47.28;101568.65;105090;1255;63820;-64
2024/02/28 07:06:03;;;;;;;11.60;4.00;;;;;;;7.06;46.91;101572.56;104932;1260;60593;-60
2024/02/28 07:08:32;;;;;;;9.20;4.80;;;;;;;7.09;46.90;101570.50;105355;1254;62533;-63
2024/02/28 07:10:59;;;;;;;17.30;9.70;;;;;;;7.14;47.09;101567.87;105397;1260;60616;-68
2024/02/28 07:13:28;;;;;;;12.40;4.40;;;;;;;7.20;46.92;101568.41;105614;1260;60446;-66
2024/02/28 07:15:57;;;;;;;20.20;4.70;;;;;;;7.29;46.66;101573.09;105009;1259;64993;-59
2024/02/28 07:18:25;;;;;;;11.50;4.00;;;;;;;7.34;46.29;101573.55;105591;1260;60447;-56
2024/02/28 07:20:53;;;;;;;11.10;4.70;;;;;;;7.39;46.02;101574.04;105162;1254;63943;-56
2024/02/28 07:23:21;;;;;;;10.30;4.30;;;;;;;7.41;45.89;101575.81;104893;1255;60868;-59
2024/02/28 07:25:48;;;;;;;18.40;9.40;;;;;;;7.44;45.70;101577.27;105097;1255;60535;-57
2024/02/28 07:28:16;;;;;;;10.60;4.60;;;;;;;7.46;45.36;101578.04;104972;1254;63930;-61
2024/02/28 07:30:45;;;;;;;8.50;4.70;;;;;;;7.47;45.36;101583.05;104890;1259;60545;-58
2024/02/28 07:33:13;;;;;;;13.90;4.50;;;;;;;7.50;45.58;101583.80;105123;1255;63860;-59
2024/02/28 07:35:45;;;;;;;10.90;4.40;;;;;;;7.55;45.53;101583.38;105071;1259;60574;-57
2024/02/28 07:38:13;;;;;;;9.70;3.90;;;;;;;7.62;45.37;101584.23;104961;1254;60502;-58
2024/02/28 07:40:41;;;;;;;8.60;3.70;;;;;;;7.68;44.90;101585.58;105062;1258;63703;-57
2024/02/28 07:43:09;;;;;;;12.20;4.70;;;;;;;7.69;44.52;101585.14;104913;1254;61533;-57
2024/02/28 07:45:37;;;;;;;15.40;4.30;;;;;;;7.69;44.51;101585.12;105232;1255;62521;-57
2024/02/28 07:48:05;;;;;;;10.30;4.30;;;;;;;7.70;44.75;101585.11;105145;1260;60549;-60
2024/02/28 07:50:33;;;;;;;16.20;9.10;;;;;;;7.73;44.67;101589.67;106353;1255;60322;-66
2024/02/28 07:53:01;;;;;;;14.10;4.50;;;;;;;7.77;44.40;101591.37;105177;1254;63698;-58
2024/02/28 07:55:29;;;;;;;13.70;4.20;;;;;;;7.82;44.27;101595.37;105205;1260;60451;-56
2024/02/28 07:57:57;;;;;;;15.80;10.10;;;;;;;7.85;44.20;101595.21;105073;1260;62591;-56
2024/02/28 08:00:25;;;;;;;9.00;4.80;;;;;;;7.85;44.00;101592.41;104986;1260;61158;-55
2024/02/28 08:02:53;;;;;;;11.50;4.20;;;;;;;7.84;43.97;101592.79;105032;1255;60469;-54
2024/02/28 08:05:20;;;;;;;13.90;4.30;;;;;;;7.87;44.32;101594.91;105722;1254;63712;-57
2024/02/28 08:07:48;;;;;;;21.10;9.90;;;;;;;7.93;44.48;101595.99;105061;1260;61597;-58
2024/02/28 08:10:16;;;;;;;10.70;4.20;;;;;;;8.01;44.40;101594.20;106012;1257;64257;-58
2024/02/28 08:12:44;;;;;;;12.90;5.40;;;;;;;8.09;44.25;101592.95;105148;1260;60588;-59
2024/02/28 08:15:11;;;;;;;16.60;9.00;;;;;;;8.17;44.32;101591.67;105063;1256;62850;-57
2024/02/28 08:17:39;;;;;;;9.00;4.70;;;;;;;8.26;43.84;101591.08;105097;1255;63704;-58
2024/02/28 08:20:08;;;;;;;13.30;5.20;;;;;;;8.30;43.75;101588.91;105390;1260;60436;-56
2024/02/28 08:22:36;;;;;;;10.80;4.70;;;;;;;8.35;43.71;101586.41;105420;1260;62530;-60
2024/02/28 08:25:05;;;;;;;15.40;4.70;;;;;;;8.41;44.11;101589.59;109120;1254;60506;-58
2024/02/28 08:27:34;;;;;;;15.80;6.80;;;;;;;8.49;44.05;101586.23;109144;1254;58325;-56
2024/02/28 08:30:06;;;;;;;17.70;9.90;;;;;;;8.59;43.81;101584.11;105464;1258;65002;-61
2024/02/28 08:32:34;;;;;;;11.10;4.90;;;;;;;8.66;43.68;101585.52;105362;1257;60529;-59
2024/02/28 08:35:01;;;;;;;11.60;4.60;;;;;;;8.71;43.51;101585.75;105074;1257;64279;-56
2024/02/28 08:37:29;;;;;;;18.40;10.40;;;;;;;8.73;43.10;101579.52;105088;1255;60559;-56
2024/02/28 08:39:57;;;;;;;17.10;3.80;;;;;;;8.73;42.97;101579.00;105029;1260;61506;-57
2024/02/28 08:42:28;;;;;;;18.80;6.10;;;;;;;8.74;43.30;101581.92;105593;1254;63682;-57
2024/02/28 08:44:56;;;;;;;17.90;9.90;;;;;;;8.79;43.45;101581.31;105296;1267;60464;-59
2024/02/28 08:47:24;;;;;;;9.90;3.30;;;;;;;8.87;43.22;101580.59;105173;1257;62740;-57
2024/02/28 08:49:53;;;;;;;7.80;3.40;;;;;;;8.87;42.67;101577.73;105051;1260;60516;-59
2024/02/28 08:52:21;;;;;;;21.30;9.60;;;;;;;8.87;43.06;101578.48;105348;1260;60507;-59
2024/02/28 08:54:49;;;;;;;11.40;4.70;;;;;;;8.91;43.30;101578.05;105038;1254;63727;-58
2024/02/28 08:57:16;;;;;;;16.80;9.00;;;;;;;8.98;43.15;101576.98;105006;1257;62048;-58
2024/02/28 08:59:44;;;;;;;10.60;4.10;;;;;;;9.04;43.05;101577.19;105165;1254;62540;-59
2024/02/28 09:02:12;;;;;;;23.00;10.50;;;;;;;9.10;43.21;101576.17;105143;1258;61056;-61
2024/02/28 09:04:40;;;;;;;9.10;3.60;;;;;;;9.15;43.35;101574.16;106273;1258;60443;-60
2024/02/28 09:07:08;;;;;;;22.40;10.30;;;;;;;9.20;43.53;101574.02;105119;1260;64470;-59
2024/02/28 09:09:37;;;;;;;10.50;4.90;;;;;;;9.25;43.65;101576.06;105057;1260;60439;-59
2024/02/28 09:12:06;;;;;;;23.40;10.70;;;;;;;9.30;43.65;101572.95;105438;1260;63849;-60
2024/02/28 09:14:33;;;;;;;7.30;2.90;;;;;;;9.37;43.59;101570.64;105637;1255;60447;-57
2024/02/28 09:17:03;;;;;;;15.60;8.50;;;;;;;9.41;42.81;101573.08;105177;1260;60294;-60
2024/02/28 09:19:31;;;;;;;9.40;3.40;;;;;;;9.45;42.43;101573.15;106470;1259;63712;-59
2024/02/28 09:21:59;;;;;;;14.20;8.00;;;;;;;9.47;41.69;101573.61;105760;1260;60347;-61
2024/02/28 09:24:27;;;;;;;11.70;4.80;;;;;;;9.46;41.86;101574.36;105318;1260;63848;-59
2024/02/28 09:26:54;;;;;;;14.00;8.90;;;;;;;9.45;41.79;101572.50;105432;1260;60489;-59
2024/02/28 09:29:22;;;;;;;9.30;3.80;;;;;;;9.42;41.73;101570.54;106430;1260;60422;-58
2024/02/28 09:31:51;;;;;;;13.80;8.30;;;;;;;9.41;41.95;101572.89;105240;1254;65467;-61
2024/02/28 09:34:19;;;;;;;12.70;4.10;;;;;;;9.43;42.31;101571.17;106207;1258;61527;-58
2024/02/28 09:36:47;;;;;;;14.60;9.40;;;;;;;9.51;42.29;101573.91;106771;1260;62532;-58
2024/02/28 09:39:17;;;;;;;16.50;3.70;;;;;;;9.59;42.03;101574.16;105206;1258;61128;-57
2024/02/28 09:41:49;;;;;;;14.30;8.00;;;;;;;9.64;41.96;101574.05;105476;1256;60475;-58
2024/02/28 09:44:17;;;;;;;11.10;3.40;;;;;;;9.71;41.87;101574.55;107040;1258;63908;-58
2024/02/28 09:46:44;;;;;;;16.90;9.10;;;;;;;9.76;41.97;101572.11;105186;1257;61443;-55
2024/02/28 09:49:12;;;;;;;13.00;5.00;;;;;;;9.84;41.97;101571.68;105413;1256;64253;-56
2024/02/28 09:51:40;;;;;;;17.20;9.10;;;;;;;9.94;41.92;101571.64;105435;1256;60470;-59
2024/02/28 09:54:07;;;;;;;10.00;4.40;;;;;;;10.02;42.20;101576.92;105288;1251;60549;-57
2024/02/28 09:56:35;;;;;;;15.00;8.60;;;;;;;10.12;42.00;101574.24;105110;1258;63745;-58
2024/02/28 09:59:03;;;;;;;7.40;3.20;;;;;;;10.21;41.83;101573.38;105561;1258;60482;-58
2024/02/28 10:01:30;;;;;;;16.60;7.70;;;;;;;10.30;41.82;101576.17;105799;1258;62543;-59
2024/02/28 10:03:59;;;;;;;14.20;7.80;;;;;;;10.40;41.57;101574.02;105188;1255;61438;-58
2024/02/28 10:06:27;;;;;;;11.50;3.90;;;;;;;10.50;41.18;101571.31;105781;1257;60475;-57
2024/02/28 10:08:55;;;;;;;15.20;7.80;;;;;;;10.56;40.98;101570.27;105429;1255;65070;-56
2024/02/28 10:11:23;;;;;;;9.60;3.70;;;;;;;10.57;40.81;101571.59;105792;1255;61494;-57
2024/02/28 10:13:52;;;;;;;14.30;8.30;;;;;;;10.59;40.71;101569.84;106980;1257;62498;-57
2024/02/28 10:16:20;;;;;;;15.50;7.90;;;;;;;10.63;40.44;101568.77;105977;1253;60574;-60
2024/02/28 10:18:48;;;;;;;14.80;7.50;;;;;;;10.63;40.47;101567.19;107716;1254;60451;-56
2024/02/28 10:21:17;;;;;;;9.70;4.10;;;;;;;10.66;40.92;101563.85;105427;1257;63709;-56
2024/02/28 10:23:45;;;;;;;15.90;8.00;;;;;;;10.75;41.03;101562.80;106120;1256;61515;-58
2024/02/28 10:26:13;;;;;;;9.80;3.50;;;;;;;10.85;41.03;101561.45;107797;1254;62527;-57
2024/02/28 10:28:41;;;;;;;17.60;7.60;;;;;;;10.95;40.88;101557.66;105288;1251;60572;-58
2024/02/28 10:31:08;;;;;;;14.80;7.00;;;;;;;11.03;41.03;101555.61;105315;1251;60374;-59
2024/02/28 10:33:36;;;;;;;12.20;7.40;;;;;;;11.09;41.02;101554.52;105310;1251;64988;-58
2024/02/28 10:36:04;;;;;;;16.90;7.90;;;;;;;11.15;40.99;101552.17;105540;1257;60417;-56
2024/02/28 10:38:38;;;;;;;12.90;8.00;;;;;;;11.20;40.47;101547.86;105422;1256;63833;-57
2024/02/28 10:41:06;;;;;;;7.40;3.10;;;;;;;11.20;39.98;101544.33;105398;1260;60584;-57
2024/02/28 10:43:38;;;;;;;13.90;7.40;;;;;;;11.19;40.17;101544.05;105362;1257;60433;-56
2024/02/28 10:46:06;;;;;;;11.70;6.60;;;;;;;11.21;39.92;101540.93;105457;1251;68099;-57
2024/02/28 10:48:54;;;;;;;11.00;3.50;;;;;;;11.20;39.99;101536.76;105038;1251;63022;-59
2024/02/28 10:51:27;;;;;;;13.70;8.30;;;;;;;11.22;40.45;101532.42;105169;1257;64852;-60
2024/02/28 10:54:15;;;;;;;14.30;7.90;;;;;;;11.27;40.74;101530.18;105286;1256;60445;-57
2024/02/28 10:56:43;;;;;;;12.50;6.40;;;;;;;11.34;40.72;101527.92;105491;1251;60520;-60
2024/02/28 10:59:12;;;;;;;13.40;7.10;;;;;;;11.42;40.23;101523.96;105412;1261;65141;-58
2024/02/28 11:01:43;;;;;;;13.20;7.40;;;;;;;11.50;39.88;101520.04;105509;1255;60476;-59
2024/02/28 11:04:13;;;;;;;7.70;2.80;;;;;;;11.59;40.07;101515.11;105289;1257;63809;-60
2024/02/28 11:06:49;;;;;;;10.60;6.30;;;;;;;11.65;39.37;101510.83;105510;1253;60530;-59
2024/02/28 11:09:28;;;;;;;15.30;6.80;;;;;;;11.69;39.33;101511.95;105565;1253;60341;-58
2024/02/28 11:11:56;;;;;;;14.90;6.40;;;;;;;11.73;39.38;101508.70;106120;1254;63701;-60
2024/02/28 11:14:27;;;;;;;15.20;8.20;;;;;;;11.78;39.58;101505.05;106033;1257;60363;-59
2024/02/28 11:17:03;;;;;;;22.50;10.10;;;;;;;11.87;39.79;101505.17;105975;1251;62588;-59
2024/02/28 11:19:32;;;;;;;12.90;7.00;;;;;;;11.93;40.17;101501.08;105719;1257;60460;-60
2024/02/28 11:22:01;;;;;;;16.90;9.70;;;;;;;11.99;40.18;101498.23;105667;1259;60503;-58